Redding Center, Connecticut
Current Conditions -  °F | °C
As of 8:53 PM on Saturday 22 Nov 2014 (Local Time) from KDXR Reporting Station
Overcast Overcast  
Wind Chill: 36°   Ceiling: 4700
Heat Index: 41°   Visibility: 10mi
Dew Point: 17°   Wind: 8mph
Humidity: 38%   Direction: 230°SW
Pressure: 30.18"   Gusts: NA
Location:  41.3°N, 73.38°W
Report Text: KDXR 230153Z 23007KT 10SM OVC047 05/M08 A3018 RMK AO2 SLP224 T00501083
Loading
Personal Weather Stations






























Interactive Weather Map New forecast layout! Learn more

10-Day Weather Forecast

Advertisements
Track Severe Weather on mobile